createdAt,value
2019-03-13T00:02:27.921Z,6.75
2019-03-13T00:04:57.861Z,5.28
2019-03-13T00:07:27.699Z,3.85
2019-03-13T00:09:57.464Z,5.10
2019-03-13T00:12:27.314Z,4.00
2019-03-13T00:14:57.109Z,4.58
2019-03-13T00:17:26.937Z,5.12
2019-03-13T00:19:56.840Z,6.20
2019-03-13T00:22:27.705Z,4.80
2019-03-13T00:24:57.468Z,5.03
2019-03-13T00:27:27.314Z,4.12
2019-03-13T00:29:57.100Z,3.60
2019-03-13T00:32:26.827Z,4.15
2019-03-13T00:34:56.647Z,3.70
2019-03-13T00:37:26.381Z,5.90
2019-03-13T00:39:56.218Z,3.25
2019-03-13T00:42:25.997Z,4.58
2019-03-13T00:44:55.858Z,3.80
2019-03-13T00:47:25.880Z,5.03
2019-03-13T00:49:55.902Z,3.77
2019-03-13T00:52:25.707Z,5.72
2019-03-13T00:54:55.608Z,3.85
2019-03-13T00:57:25.617Z,3.55
2019-03-13T00:59:55.601Z,4.15
2019-03-13T01:02:45.306Z,3.47
2019-03-13T01:05:21.787Z,3.87
2019-03-13T01:07:51.512Z,6.30
2019-03-13T01:10:21.292Z,3.58
2019-03-13T01:12:51.049Z,3.58
2019-03-13T01:15:20.896Z,2.87
2019-03-13T01:17:50.664Z,2.92
2019-03-13T01:20:20.477Z,3.90
2019-03-13T01:22:50.218Z,3.05
2019-03-13T01:25:20.013Z,2.75
2019-03-13T01:27:49.795Z,3.60
2019-03-13T01:30:19.658Z,4.53
2019-03-13T01:32:54.859Z,2.90
2019-03-13T01:35:31.573Z,3.67
2019-03-13T01:38:01.313Z,3.90
2019-03-13T01:40:31.083Z,5.40
2019-03-13T01:43:00.832Z,3.70
2019-03-13T01:45:30.618Z,4.15
2019-03-13T01:48:00.405Z,2.92
2019-03-13T01:50:30.217Z,5.53
2019-03-13T01:52:59.932Z,3.90
2019-03-13T01:55:29.698Z,2.85
2019-03-13T01:57:59.436Z,4.53
2019-03-13T02:00:29.243Z,3.30
2019-03-13T02:02:59.138Z,2.95
2019-03-13T02:05:28.990Z,4.78
2019-03-13T02:07:58.857Z,3.08
2019-03-13T02:10:28.645Z,4.15
2019-03-13T02:12:58.406Z,2.52
2019-03-13T02:15:28.400Z,2.50
2019-03-13T02:17:58.327Z,2.52
2019-03-13T02:20:29.309Z,3.17
2019-03-13T02:22:59.117Z,2.95
2019-03-13T02:25:28.879Z,5.85
2019-03-13T02:27:58.623Z,3.40
2019-03-13T02:30:29.304Z,3.65
2019-03-13T02:32:59.099Z,2.27
2019-03-13T02:35:28.973Z,2.98
2019-03-13T02:37:58.935Z,3.45
2019-03-13T02:40:28.734Z,4.03
2019-03-13T02:42:58.524Z,3.50
2019-03-13T02:45:28.251Z,4.40
2019-03-13T02:47:58.069Z,2.95
2019-03-13T02:50:27.854Z,3.58
2019-03-13T02:52:57.646Z,10.53
2019-03-13T02:55:27.409Z,3.08
2019-03-13T02:57:57.228Z,4.30
2019-03-13T03:00:58.283Z,6.47
2019-03-13T03:03:36.765Z,4.53
2019-03-13T03:06:06.667Z,4.45
2019-03-13T03:08:36.424Z,5.58
2019-03-13T03:11:06.224Z,6.92
2019-03-13T03:13:36.020Z,3.42
2019-03-13T03:16:05.804Z,4.85
2019-03-13T03:18:35.685Z,4.30
2019-03-13T03:21:05.480Z,3.85
2019-03-13T03:23:35.233Z,6.85
2019-03-13T03:26:05.056Z,5.10
2019-03-13T03:28:34.819Z,5.78
2019-03-13T03:31:04.803Z,4.92
2019-03-13T03:33:37.085Z,5.87
2019-03-13T03:36:06.826Z,4.12
2019-03-13T03:38:36.532Z,3.42
2019-03-13T03:41:06.323Z,4.05
2019-03-13T03:43:40.705Z,6.55
2019-03-13T03:46:07.350Z,5.10
2019-03-13T03:48:37.059Z,3.98
2019-03-13T03:51:06.732Z,5.10
2019-03-13T03:53:36.486Z,4.10
2019-03-13T03:56:06.189Z,4.08
2019-03-13T03:58:35.914Z,4.05
2019-03-13T04:01:05.570Z,4.17
2019-03-13T04:03:35.447Z,3.00
2019-03-13T04:06:05.246Z,3.15
2019-03-13T04:08:37.790Z,3.60
2019-03-13T04:11:06.349Z,3.62
2019-03-13T04:13:36.181Z,3.08
2019-03-13T04:16:06.061Z,3.40
2019-03-13T04:18:35.891Z,2.60
2019-03-13T04:21:05.755Z,3.37
2019-03-13T04:23:35.484Z,3.30
2019-03-13T04:26:05.222Z,3.40
2019-03-13T04:28:34.954Z,3.60
2019-03-13T04:31:04.672Z,5.03
2019-03-13T04:33:34.447Z,3.00
2019-03-13T04:36:04.153Z,2.90
2019-03-13T04:38:34.012Z,3.33
2019-03-13T04:41:03.752Z,3.45
2019-03-13T04:43:33.454Z,2.85
2019-03-13T04:46:03.149Z,1.98
2019-03-13T04:48:32.903Z,3.37
2019-03-13T04:51:02.578Z,2.90
2019-03-13T04:53:32.378Z,2.67
2019-03-13T04:56:02.093Z,2.37
2019-03-13T04:58:31.804Z,3.10
2019-03-13T05:01:01.491Z,2.10
2019-03-13T05:03:31.267Z,3.87
2019-03-13T05:06:04.784Z,3.58
2019-03-13T05:08:45.064Z,3.15
2019-03-13T05:11:11.508Z,3.72
2019-03-13T05:13:41.322Z,3.55
2019-03-13T05:16:11.035Z,2.40
2019-03-13T05:18:40.897Z,3.62
2019-03-13T05:21:10.584Z,2.83
2019-03-13T05:23:40.312Z,4.03
2019-03-13T05:26:09.974Z,6.50
2019-03-13T05:28:39.681Z,4.78
2019-03-13T05:31:09.438Z,3.85
2019-03-13T05:33:39.141Z,4.28
2019-03-13T05:36:08.911Z,4.75
2019-03-13T05:38:38.625Z,3.30
2019-03-13T05:41:08.315Z,3.40
2019-03-13T05:43:38.026Z,3.27
2019-03-13T05:46:07.822Z,4.05
2019-03-13T05:48:37.520Z,4.33
2019-03-13T05:51:07.231Z,3.80
2019-03-13T05:53:36.936Z,4.33
2019-03-13T05:56:09.480Z,5.75
2019-03-13T05:58:39.257Z,4.80
2019-03-13T06:01:08.962Z,4.87
2019-03-13T06:03:40.178Z,3.75
2019-03-13T06:06:10.011Z,4.53
2019-03-13T06:09:34.213Z,3.85
2019-03-13T06:12:04.467Z,2.65
2019-03-13T06:14:34.171Z,5.67
2019-03-13T06:17:04.006Z,2.87
2019-03-13T06:19:37.100Z,4.35
2019-03-13T06:22:06.778Z,4.08
2019-03-13T06:24:37.134Z,3.17
2019-03-13T06:27:06.789Z,3.85
2019-03-13T06:29:36.484Z,3.87
2019-03-13T06:32:06.266Z,3.20
2019-03-13T06:34:35.950Z,3.75
2019-03-13T06:37:07.324Z,7.22
2019-03-13T06:39:37.003Z,4.60
2019-03-13T06:42:06.735Z,3.20
2019-03-13T06:44:36.405Z,3.40
2019-03-13T06:47:06.139Z,4.37
2019-03-13T06:49:35.885Z,3.30
2019-03-13T06:52:05.701Z,3.10
2019-03-13T06:54:35.504Z,5.12
2019-03-13T06:57:05.126Z,5.00
2019-03-13T06:59:56.935Z,5.20
2019-03-13T07:02:34.727Z,6.55
2019-03-13T07:05:11.431Z,7.78
2019-03-13T07:07:51.638Z,4.78
2019-03-13T07:10:43.059Z,5.22
2019-03-13T07:13:34.545Z,5.12
2019-03-13T07:16:32.244Z,5.33
2019-03-13T07:19:19.372Z,4.42
2019-03-13T07:22:14.103Z,5.80
2019-03-13T07:25:05.461Z,3.95
2019-03-13T07:27:54.159Z,5.62
2019-03-13T07:30:42.757Z,16.90
2019-03-13T07:33:43.468Z,4.90
2019-03-13T07:36:34.785Z,5.20
2019-03-13T07:39:23.380Z,4.80
2019-03-13T07:42:18.064Z,5.22
2019-03-13T07:45:16.180Z,5.10
2019-03-13T07:48:04.960Z,4.78
2019-03-13T07:50:53.601Z,5.20
2019-03-13T07:53:45.271Z,4.70
2019-03-13T07:56:36.913Z,4.08
2019-03-13T07:59:28.307Z,6.42
2019-03-13T08:02:18.520Z,6.47
2019-03-13T08:04:54.040Z,5.35
2019-03-13T08:07:45.722Z,8.08
2019-03-13T08:10:40.420Z,9.55
2019-03-13T08:13:31.792Z,7.35
2019-03-13T08:16:18.956Z,6.60
2019-03-13T08:19:10.581Z,5.33
2019-03-13T08:22:09.694Z,6.30
2019-03-13T08:25:04.322Z,5.40
2019-03-13T08:27:59.223Z,6.28
2019-03-13T08:30:39.276Z,5.87
2019-03-13T08:33:13.854Z,5.28
2019-03-13T08:36:14.507Z,4.85
2019-03-13T08:39:00.447Z,5.75
2019-03-13T08:42:01.330Z,4.70
2019-03-13T08:44:52.920Z,5.75
2019-03-13T08:47:50.722Z,4.50
2019-03-13T08:50:34.292Z,3.58
2019-03-13T08:53:22.883Z,3.75
2019-03-13T08:56:17.559Z,5.22
2019-03-13T08:59:08.875Z,9.35
2019-03-13T09:01:50.701Z,5.17
2019-03-13T09:04:42.512Z,8.25
2019-03-13T09:07:37.179Z,4.87
2019-03-13T09:10:42.771Z,5.28
2019-03-13T09:13:23.037Z,3.60
2019-03-13T09:16:19.648Z,3.90
2019-03-13T09:19:08.099Z,3.30
2019-03-13T09:21:57.020Z,3.37
2019-03-13T09:25:11.221Z,2.30
2019-03-13T09:27:57.050Z,2.30
2019-03-13T09:31:00.693Z,2.35
2019-03-13T09:33:55.061Z,2.52
2019-03-13T09:36:42.065Z,2.15
2019-03-13T09:39:36.648Z,3.83
2019-03-13T09:42:22.083Z,3.75
2019-03-13T09:45:09.296Z,3.65
2019-03-13T09:47:45.830Z,3.87
2019-03-13T09:50:37.195Z,2.33
2019-03-13T09:53:18.025Z,2.12
2019-03-13T09:56:05.182Z,2.92
2019-03-13T09:58:59.747Z,2.27
2019-03-13T10:02:06.500Z,2.17
2019-03-13T10:04:57.828Z,2.98
2019-03-13T10:07:48.476Z,2.80
2019-03-13T10:10:36.920Z,2.95
2019-03-13T10:13:37.403Z,2.30
2019-03-13T10:16:16.610Z,3.85
2019-03-13T10:19:08.204Z,2.47
2019-03-13T10:21:55.899Z,2.47
2019-03-13T10:24:44.529Z,2.40
2019-03-13T10:27:30.419Z,3.25
2019-03-13T10:30:17.978Z,2.52
2019-03-13T10:33:09.374Z,2.95
2019-03-13T10:35:57.958Z,2.00
2019-03-13T10:38:55.512Z,2.70
2019-03-13T10:41:53.156Z,2.42
2019-03-13T10:44:41.762Z,1.98
2019-03-13T10:47:45.406Z,4.67
2019-03-13T10:50:46.842Z,1.77
2019-03-13T10:53:35.417Z,2.85
2019-03-13T10:56:24.058Z,3.35
2019-03-13T10:59:15.831Z,1.35
2019-03-13T11:01:55.266Z,1.70
2019-03-13T11:04:33.450Z,1.00
2019-03-13T11:07:22.079Z,3.25
2019-03-13T11:10:00.308Z,1.70
2019-03-13T11:12:51.907Z,2.22
2019-03-13T11:15:30.230Z,3.75
2019-03-13T11:18:18.362Z,1.95
2019-03-13T11:21:10.365Z,1.92
2019-03-13T11:24:02.039Z,4.35
2019-03-13T11:26:49.658Z,1.67
2019-03-13T11:29:53.318Z,1.77
2019-03-13T11:32:44.676Z,1.87
2019-03-13T11:35:42.416Z,2.45
2019-03-13T11:38:49.179Z,3.77
2019-03-13T11:41:30.607Z,4.12
2019-03-13T11:44:19.276Z,1.27
2019-03-13T11:47:08.893Z,3.40
2019-03-13T11:50:00.628Z,1.65
2019-03-13T11:52:47.792Z,1.70
2019-03-13T11:55:25.938Z,3.67
2019-03-13T11:58:14.558Z,2.15
2019-03-13T12:01:21.211Z,1.60
2019-03-13T12:04:21.768Z,2.70
2019-03-13T12:07:09.256Z,1.60
2019-03-13T12:09:56.423Z,1.98
2019-03-13T12:12:43.618Z,1.98
2019-03-13T12:15:35.249Z,1.98
2019-03-13T12:18:24.866Z,3.27
2019-03-13T12:21:12.658Z,2.27
2019-03-13T12:24:02.517Z,6.90
2019-03-13T12:26:49.692Z,2.42
2019-03-13T12:29:41.342Z,2.17
2019-03-13T12:32:28.896Z,3.12
2019-03-13T12:35:16.331Z,2.90
2019-03-13T12:38:23.120Z,2.20
2019-03-13T12:41:04.251Z,2.30
2019-03-13T12:43:51.304Z,2.22
2019-03-13T12:46:57.456Z,2.35
2019-03-13T12:49:32.766Z,4.03
2019-03-13T12:52:24.132Z,2.85
2019-03-13T12:55:11.104Z,2.22
2019-03-13T12:57:58.103Z,3.40
2019-03-13T13:00:40.797Z,5.58
2019-03-13T13:03:32.445Z,5.72
2019-03-13T13:06:36.440Z,2.25
2019-03-13T13:09:25.676Z,2.92
2019-03-13T13:12:20.934Z,2.70
2019-03-13T13:14:59.392Z,6.60
2019-03-13T13:17:45.929Z,2.92
2019-03-13T13:20:15.745Z,2.27
2019-03-13T13:22:45.447Z,5.45
2019-03-13T13:25:15.212Z,4.25
2019-03-13T13:27:44.912Z,3.27
2019-03-13T13:30:17.583Z,3.00
2019-03-13T13:32:46.971Z,5.67
2019-03-13T13:35:16.679Z,3.15
2019-03-13T13:37:46.406Z,3.80
2019-03-13T13:40:16.289Z,2.62
2019-03-13T13:42:45.998Z,5.87
2019-03-13T13:45:41.208Z,3.27
2019-03-13T13:48:10.974Z,3.45
2019-03-13T13:50:40.736Z,3.92
2019-03-13T13:53:10.412Z,6.95
2019-03-13T13:55:41.875Z,5.42
2019-03-13T13:58:11.601Z,6.03
2019-03-13T14:00:41.464Z,4.80
2019-03-13T14:03:11.144Z,5.92
2019-03-13T14:05:41.314Z,2.98
2019-03-13T14:08:11.169Z,3.65
2019-03-13T14:10:40.899Z,6.72
2019-03-13T14:13:10.821Z,6.05
2019-03-13T14:15:40.610Z,6.40
2019-03-13T14:18:10.260Z,4.30
2019-03-13T14:20:39.975Z,5.25
2019-03-13T14:23:12.446Z,5.03
2019-03-13T14:25:42.206Z,4.28
2019-03-13T14:28:12.008Z,2.58
2019-03-13T14:30:41.728Z,4.05
2019-03-13T14:33:13.516Z,4.25
2019-03-13T14:35:46.152Z,3.00
2019-03-13T14:38:14.746Z,5.10
2019-03-13T14:40:44.529Z,3.47
2019-03-13T14:43:14.254Z,3.47
2019-03-13T14:45:43.985Z,4.50
2019-03-13T14:48:14.865Z,3.00
2019-03-13T14:50:44.719Z,4.17
2019-03-13T14:53:14.536Z,4.75
2019-03-13T14:55:45.960Z,5.60
2019-03-13T14:58:15.736Z,4.20
2019-03-13T15:00:45.449Z,4.65
2019-03-13T15:03:18.023Z,4.45
2019-03-13T15:05:50.940Z,4.35
2019-03-13T15:08:20.648Z,3.37
2019-03-13T15:10:50.359Z,4.25
2019-03-13T15:13:20.182Z,3.35
2019-03-13T15:15:49.867Z,3.22
2019-03-13T15:18:19.540Z,4.25
2019-03-13T15:20:49.240Z,2.25
2019-03-13T15:23:18.996Z,2.87
2019-03-13T15:25:48.750Z,3.67
2019-03-13T15:28:18.421Z,3.98
2019-03-13T15:30:48.199Z,4.17
2019-03-13T15:33:17.914Z,3.70
2019-03-13T15:35:47.696Z,4.17
2019-03-13T15:38:17.359Z,7.42
2019-03-13T15:40:47.076Z,4.05
2019-03-13T15:43:16.860Z,5.15
2019-03-13T15:45:46.647Z,3.83
2019-03-13T15:48:19.104Z,4.15
2019-03-13T15:50:48.945Z,4.42
2019-03-13T15:53:18.606Z,4.90
2019-03-13T15:55:48.341Z,5.85
2019-03-13T15:58:19.665Z,6.35
2019-03-13T16:00:49.394Z,5.00
2019-03-13T16:03:19.069Z,5.72
2019-03-13T16:05:48.774Z,5.78
2019-03-13T16:08:21.727Z,6.33
2019-03-13T16:10:51.461Z,7.58
2019-03-13T16:13:21.199Z,3.77
2019-03-13T16:15:50.939Z,7.25
2019-03-13T16:18:20.796Z,5.72
2019-03-13T16:20:53.329Z,4.40
2019-03-13T16:23:23.141Z,3.62
2019-03-13T16:25:53.056Z,3.45
2019-03-13T16:28:22.740Z,4.35
2019-03-13T16:30:52.806Z,5.85
2019-03-13T16:33:22.547Z,4.67
2019-03-13T16:35:52.251Z,4.35
2019-03-13T16:38:21.992Z,5.22
2019-03-13T16:40:51.704Z,4.47
2019-03-13T16:43:21.415Z,3.75
2019-03-13T16:45:51.060Z,3.08
2019-03-13T16:48:23.844Z,3.50
2019-03-13T16:50:53.618Z,5.45
2019-03-13T16:53:23.375Z,6.15
2019-03-13T16:55:53.193Z,4.37
2019-03-13T16:58:22.913Z,6.10
2019-03-13T17:00:52.712Z,5.75
2019-03-13T17:03:22.527Z,4.58
2019-03-13T17:05:52.315Z,4.03
2019-03-13T17:08:22.117Z,4.65
2019-03-13T17:10:55.781Z,3.98
2019-03-13T17:13:25.599Z,4.25
2019-03-13T17:15:55.330Z,4.78
2019-03-13T17:18:25.658Z,4.22
2019-03-13T17:20:55.367Z,3.50
2019-03-13T17:23:28.154Z,5.83
2019-03-13T17:25:57.858Z,5.40
2019-03-13T17:28:27.596Z,5.22
2019-03-13T17:30:57.323Z,5.35
2019-03-13T17:33:29.852Z,8.38
2019-03-13T17:35:59.721Z,7.75
2019-03-13T17:38:29.473Z,6.78
2019-03-13T17:40:59.192Z,6.78
2019-03-13T17:43:39.118Z,7.45
2019-03-13T17:46:01.514Z,5.42
2019-03-13T17:48:31.236Z,8.15
2019-03-13T17:51:00.957Z,7.03
2019-03-13T17:53:30.696Z,6.87
2019-03-13T17:56:00.392Z,6.40
2019-03-13T17:58:30.102Z,11.75
2019-03-13T18:00:59.763Z,7.65
2019-03-13T18:03:29.456Z,6.85
2019-03-13T18:05:59.124Z,7.55
2019-03-13T18:08:29.067Z,6.78
2019-03-13T18:10:58.756Z,7.45
2019-03-13T18:13:31.395Z,7.55
2019-03-13T18:16:01.090Z,8.10
2019-03-13T18:18:30.855Z,7.50
2019-03-13T18:21:00.597Z,9.55
2019-03-13T18:23:30.387Z,9.03
2019-03-13T18:26:00.213Z,9.58
2019-03-13T18:28:29.970Z,9.08
2019-03-13T18:31:02.054Z,9.38
2019-03-13T18:33:33.016Z,10.82
2019-03-13T18:36:02.713Z,10.63
2019-03-13T18:38:32.539Z,9.83
2019-03-13T18:41:02.207Z,10.38
2019-03-13T18:43:31.991Z,15.13
2019-03-13T18:46:01.666Z,8.13
2019-03-13T18:48:31.483Z,10.30
2019-03-13T18:51:01.257Z,11.57
2019-03-13T18:53:31.065Z,7.80
2019-03-13T18:56:00.880Z,7.45
2019-03-13T18:58:30.626Z,10.65
2019-03-13T19:01:00.426Z,10.95
2019-03-13T19:03:30.155Z,8.18
2019-03-13T19:06:00.035Z,7.90
2019-03-13T19:08:29.896Z,13.08
2019-03-13T19:10:59.573Z,38.75
2019-03-13T19:13:29.387Z,77.22
2019-03-13T19:16:02.108Z,53.20
2019-03-13T19:18:31.871Z,22.02
2019-03-13T19:21:01.605Z,20.75
2019-03-13T19:23:31.628Z,43.08
2019-03-13T19:26:01.468Z,28.42
2019-03-13T19:28:31.273Z,25.05
2019-03-13T19:31:01.151Z,33.00
2019-03-13T19:33:30.881Z,21.17
2019-03-13T19:36:00.610Z,36.00
2019-03-13T19:38:30.376Z,23.73
2019-03-13T19:41:00.252Z,22.90
2019-03-13T19:43:30.065Z,17.65
2019-03-13T19:45:59.888Z,23.62
2019-03-13T19:48:29.732Z,15.75
2019-03-13T19:50:59.589Z,17.75
2019-03-13T19:53:29.341Z,14.90
2019-03-13T19:55:59.473Z,11.97
2019-03-13T19:58:29.219Z,12.40
2019-03-13T20:00:59.039Z,10.38
2019-03-13T20:03:28.772Z,10.08
2019-03-13T20:05:58.628Z,7.80
2019-03-13T20:08:28.401Z,8.58
2019-03-13T20:10:58.724Z,9.08
2019-03-13T20:13:28.540Z,9.88
2019-03-13T20:15:58.291Z,5.75
2019-03-13T20:18:28.284Z,8.85
2019-03-13T20:20:59.840Z,10.48
2019-03-13T20:23:32.644Z,8.23
2019-03-13T20:26:02.380Z,7.35
2019-03-13T20:28:32.417Z,9.03
2019-03-13T20:31:02.203Z,7.35
2019-03-13T20:33:31.981Z,8.65
2019-03-13T20:36:02.090Z,8.38
2019-03-13T20:38:31.864Z,7.85
2019-03-13T20:41:01.608Z,8.70
2019-03-13T20:43:34.410Z,8.43
2019-03-13T20:46:04.266Z,6.90
2019-03-13T20:48:34.116Z,7.83
2019-03-13T20:51:03.872Z,8.85
2019-03-13T20:53:33.509Z,9.78
2019-03-13T20:56:03.352Z,6.62
2019-03-13T20:58:33.207Z,12.13
2019-03-13T21:01:07.019Z,6.70
2019-03-13T21:03:36.858Z,6.00
2019-03-13T21:06:06.645Z,4.42
2019-03-13T21:08:36.493Z,7.00
2019-03-13T21:11:06.260Z,4.83
2019-03-13T21:13:35.943Z,4.45
2019-03-13T21:16:05.701Z,4.00
2019-03-13T21:18:35.379Z,3.25
2019-03-13T21:21:05.082Z,3.20
2019-03-13T21:23:34.803Z,4.92
2019-03-13T21:26:04.593Z,2.77
2019-03-13T21:28:34.355Z,3.45
2019-03-13T21:31:04.222Z,3.70
2019-03-13T21:33:34.033Z,2.40
2019-03-13T21:36:03.813Z,5.08
2019-03-13T21:38:33.439Z,2.60
2019-03-13T21:41:03.191Z,2.98
2019-03-13T21:43:32.963Z,2.33
2019-03-13T21:46:02.683Z,2.22
2019-03-13T21:48:32.394Z,2.22
2019-03-13T21:51:03.646Z,2.58
2019-03-13T21:53:33.329Z,3.50
2019-03-13T21:56:03.746Z,3.30
2019-03-13T21:58:34.630Z,2.42
2019-03-13T22:01:04.875Z,4.42
2019-03-13T22:03:34.662Z,2.70
2019-03-13T22:06:04.391Z,5.42
2019-03-13T22:08:34.049Z,2.67
2019-03-13T22:11:03.913Z,3.00
2019-03-13T22:13:33.603Z,3.85
2019-03-13T22:16:03.402Z,3.40
2019-03-13T22:18:33.123Z,4.65
2019-03-13T22:21:02.877Z,4.90
2019-03-13T22:23:32.644Z,4.70
2019-03-13T22:26:02.539Z,3.42
2019-03-13T22:28:32.472Z,6.17
2019-03-13T22:31:05.272Z,3.95
2019-03-13T22:33:34.952Z,3.25
2019-03-13T22:36:04.738Z,5.58
2019-03-13T22:38:34.495Z,3.37
2019-03-13T22:41:04.426Z,2.67
2019-03-13T22:43:34.132Z,4.00
2019-03-13T22:46:03.835Z,2.65
2019-03-13T22:48:33.595Z,2.42
2019-03-13T22:51:03.346Z,3.30
2019-03-13T22:53:33.012Z,4.53
2019-03-13T22:56:02.783Z,3.47
2019-03-13T22:58:32.438Z,4.30
2019-03-13T23:01:15.414Z,2.90
2019-03-13T23:03:47.353Z,3.05
2019-03-13T23:06:17.096Z,5.58
2019-03-13T23:08:46.753Z,5.60
2019-03-13T23:11:16.631Z,4.10
2019-03-13T23:13:46.347Z,3.77
2019-03-13T23:16:16.068Z,2.83
2019-03-13T23:18:45.746Z,3.20
2019-03-13T23:21:15.868Z,5.67
2019-03-13T23:23:45.946Z,4.78
2019-03-13T23:26:16.101Z,3.33
2019-03-13T23:28:46.143Z,3.70
2019-03-13T23:31:16.198Z,3.65
2019-03-13T23:33:46.189Z,3.92
2019-03-13T23:36:16.259Z,3.52
2019-03-13T23:38:46.246Z,3.45
2019-03-13T23:41:16.255Z,2.62
2019-03-13T23:43:46.248Z,5.28
2019-03-13T23:46:16.282Z,6.97
2019-03-13T23:48:46.351Z,4.20
2019-03-13T23:51:16.458Z,3.30
2019-03-13T23:53:46.473Z,3.30
2019-03-13T23:56:16.440Z,4.65
2019-03-13T23:58:46.475Z,2.58
